sensor_id;sensor_type;location;lat;lon;timestamp;P1;durP1;ratioP1;P2;durP2;ratioP2
66163;SDS011;52962;51.088;3.096;2023-04-30T00:00:31;5.10;;;3.80;;
66163;SDS011;52962;51.088;3.096;2023-04-30T00:02:59;4.22;;;3.88;;
66163;SDS011;52962;51.088;3.096;2023-04-30T00:05:27;4.32;;;3.67;;
66163;SDS011;52962;51.088;3.096;2023-04-30T00:07:55;7.90;;;4.35;;
66163;SDS011;52962;51.088;3.096;2023-04-30T00:10:23;5.88;;;4.70;;
66163;SDS011;52962;51.088;3.096;2023-04-30T00:12:52;9.57;;;4.28;;
66163;SDS011;52962;51.088;3.096;2023-04-30T00:15:20;4.43;;;4.03;;
66163;SDS011;52962;51.088;3.096;2023-04-30T00:17:48;4.47;;;3.17;;
66163;SDS011;52962;51.088;3.096;2023-04-30T00:20:16;5.28;;;4.38;;
66163;SDS011;52962;51.088;3.096;2023-04-30T00:22:44;6.30;;;4.10;;
66163;SDS011;52962;51.088;3.096;2023-04-30T00:25:11;4.35;;;3.83;;
66163;SDS011;52962;51.088;3.096;2023-04-30T00:27:39;5.25;;;4.47;;
66163;SDS011;52962;51.088;3.096;2023-04-30T00:30:09;7.15;;;4.60;;
66163;SDS011;52962;51.088;3.096;2023-04-30T00:32:39;4.57;;;3.88;;
66163;SDS011;52962;51.088;3.096;2023-04-30T00:35:07;4.70;;;4.22;;
66163;SDS011;52962;51.088;3.096;2023-04-30T00:40:04;4.38;;;3.78;;
66163;SDS011;52962;51.088;3.096;2023-04-30T00:44:59;5.72;;;3.33;;
66163;SDS011;52962;51.088;3.096;2023-04-30T00:47:29;6.03;;;4.57;;
66163;SDS011;52962;51.088;3.096;2023-04-30T00:49:57;8.15;;;4.47;;
66163;SDS011;52962;51.088;3.096;2023-04-30T00:52:25;4.72;;;4.18;;
66163;SDS011;52962;51.088;3.096;2023-04-30T00:57:21;5.20;;;3.78;;
66163;SDS011;52962;51.088;3.096;2023-04-30T00:59:50;3.92;;;3.45;;
66163;SDS011;52962;51.088;3.096;2023-04-30T01:04:47;3.17;;;2.80;;
66163;SDS011;52962;51.088;3.096;2023-04-30T01:07:15;3.75;;;3.40;;
66163;SDS011;52962;51.088;3.096;2023-04-30T01:09:42;5.68;;;4.13;;
66163;SDS011;52962;51.088;3.096;2023-04-30T01:12:12;6.70;;;5.03;;
66163;SDS011;52962;51.088;3.096;2023-04-30T01:14:46;7.72;;;4.10;;
66163;SDS011;52962;51.088;3.096;2023-04-30T01:17:20;4.22;;;3.58;;
66163;SDS011;52962;51.088;3.096;2023-04-30T01:19:50;4.53;;;3.80;;
66163;SDS011;52962;51.088;3.096;2023-04-30T01:22:23;5.57;;;4.25;;
66163;SDS011;52962;51.088;3.096;2023-04-30T01:25:00;4.75;;;4.07;;
66163;SDS011;52962;51.088;3.096;2023-04-30T01:27:46;6.35;;;4.65;;
66163;SDS011;52962;51.088;3.096;2023-04-30T01:30:15;5.32;;;4.50;;
66163;SDS011;52962;51.088;3.096;2023-04-30T01:32:45;4.72;;;4.00;;
66163;SDS011;52962;51.088;3.096;2023-04-30T01:35:13;5.18;;;4.07;;
66163;SDS011;52962;51.088;3.096;2023-04-30T01:37:42;4.45;;;3.75;;
66163;SDS011;52962;51.088;3.096;2023-04-30T01:40:17;5.10;;;4.20;;
66163;SDS011;52962;51.088;3.096;2023-04-30T01:42:51;5.55;;;4.20;;
66163;SDS011;52962;51.088;3.096;2023-04-30T01:45:22;4.28;;;3.88;;
66163;SDS011;52962;51.088;3.096;2023-04-30T01:47:56;4.63;;;4.18;;
66163;SDS011;52962;51.088;3.096;2023-04-30T01:50:27;4.13;;;3.58;;
66163;SDS011;52962;51.088;3.096;2023-04-30T01:52:58;5.70;;;4.28;;
66163;SDS011;52962;51.088;3.096;2023-04-30T01:55:27;7.95;;;3.80;;
66163;SDS011;52962;51.088;3.096;2023-04-30T01:57:57;4.82;;;4.43;;
66163;SDS011;52962;51.088;3.096;2023-04-30T02:00:26;5.18;;;3.60;;
66163;SDS011;52962;51.088;3.096;2023-04-30T02:02:56;4.88;;;4.38;;
66163;SDS011;52962;51.088;3.096;2023-04-30T02:05:24;8.85;;;4.45;;
66163;SDS011;52962;51.088;3.096;2023-04-30T02:07:52;3.88;;;3.53;;
66163;SDS011;52962;51.088;3.096;2023-04-30T02:10:20;3.83;;;3.53;;
66163;SDS011;52962;51.088;3.096;2023-04-30T02:12:48;4.43;;;4.03;;
66163;SDS011;52962;51.088;3.096;2023-04-30T02:15:18;6.15;;;3.42;;
66163;SDS011;52962;51.088;3.096;2023-04-30T02:17:46;4.38;;;3.90;;
66163;SDS011;52962;51.088;3.096;2023-04-30T02:20:14;5.25;;;3.78;;
66163;SDS011;52962;51.088;3.096;2023-04-30T02:22:42;6.50;;;4.13;;
66163;SDS011;52962;51.088;3.096;2023-04-30T02:25:10;6.07;;;3.88;;
66163;SDS011;52962;51.088;3.096;2023-04-30T02:27:38;6.57;;;4.22;;
66163;SDS011;52962;51.088;3.096;2023-04-30T02:30:06;4.93;;;4.43;;
66163;SDS011;52962;51.088;3.096;2023-04-30T02:35:04;3.58;;;3.20;;
66163;SDS011;52962;51.088;3.096;2023-04-30T02:37:32;6.35;;;4.57;;
66163;SDS011;52962;51.088;3.096;2023-04-30T02:40:00;5.30;;;4.18;;
66163;SDS011;52962;51.088;3.096;2023-04-30T02:42:28;5.80;;;3.70;;
66163;SDS011;52962;51.088;3.096;2023-04-30T02:44:56;4.63;;;4.18;;
66163;SDS011;52962;51.088;3.096;2023-04-30T02:49:52;3.58;;;3.25;;
66163;SDS011;52962;51.088;3.096;2023-04-30T02:52:23;6.32;;;3.65;;
66163;SDS011;52962;51.088;3.096;2023-04-30T02:54:51;4.82;;;3.88;;
66163;SDS011;52962;51.088;3.096;2023-04-30T02:57:19;5.78;;;4.53;;
66163;SDS011;52962;51.088;3.096;2023-04-30T02:59:47;4.95;;;3.92;;
66163;SDS011;52962;51.088;3.096;2023-04-30T03:04:47;6.45;;;3.55;;
66163;SDS011;52962;51.088;3.096;2023-04-30T03:07:15;6.85;;;4.18;;
66163;SDS011;52962;51.088;3.096;2023-04-30T03:09:44;5.22;;;4.72;;
66163;SDS011;52962;51.088;3.096;2023-04-30T03:12:12;5.55;;;4.30;;
66163;SDS011;52962;51.088;3.096;2023-04-30T03:14:41;4.50;;;3.95;;
66163;SDS011;52962;51.088;3.096;2023-04-30T03:17:09;4.40;;;3.88;;
66163;SDS011;52962;51.088;3.096;2023-04-30T03:19:37;5.35;;;4.85;;
66163;SDS011;52962;51.088;3.096;2023-04-30T03:22:05;6.60;;;4.60;;
66163;SDS011;52962;51.088;3.096;2023-04-30T03:24:33;6.38;;;4.82;;
66163;SDS011;52962;51.088;3.096;2023-04-30T03:27:02;7.85;;;4.72;;
66163;SDS011;52962;51.088;3.096;2023-04-30T03:29:30;5.95;;;4.70;;
66163;SDS011;52962;51.088;3.096;2023-04-30T03:31:58;4.88;;;4.43;;
66163;SDS011;52962;51.088;3.096;2023-04-30T03:34:26;5.80;;;5.07;;
66163;SDS011;52962;51.088;3.096;2023-04-30T03:36:54;5.35;;;4.68;;
66163;SDS011;52962;51.088;3.096;2023-04-30T03:39:22;6.63;;;4.20;;
66163;SDS011;52962;51.088;3.096;2023-04-30T03:41:50;6.35;;;4.97;;
66163;SDS011;52962;51.088;3.096;2023-04-30T03:44:19;5.22;;;4.72;;
66163;SDS011;52962;51.088;3.096;2023-04-30T03:46:47;7.43;;;5.13;;
66163;SDS011;52962;51.088;3.096;2023-04-30T03:49:15;5.70;;;4.50;;
66163;SDS011;52962;51.088;3.096;2023-04-30T03:51:43;6.53;;;4.32;;
66163;SDS011;52962;51.088;3.096;2023-04-30T03:54:11;6.03;;;5.43;;
66163;SDS011;52962;51.088;3.096;2023-04-30T03:56:39;5.40;;;4.50;;
66163;SDS011;52962;51.088;3.096;2023-04-30T03:59:07;4.95;;;4.43;;
66163;SDS011;52962;51.088;3.096;2023-04-30T04:01:36;4.88;;;4.30;;
66163;SDS011;52962;51.088;3.096;2023-04-30T04:04:04;6.13;;;4.28;;
66163;SDS011;52962;51.088;3.096;2023-04-30T04:06:32;5.13;;;4.63;;
66163;SDS011;52962;51.088;3.096;2023-04-30T04:09:00;7.88;;;4.78;;
66163;SDS011;52962;51.088;3.096;2023-04-30T04:13:56;5.25;;;4.10;;
66163;SDS011;52962;51.088;3.096;2023-04-30T04:16:24;6.28;;;4.18;;
66163;SDS011;52962;51.088;3.096;2023-04-30T04:18:53;5.25;;;4.63;;
66163;SDS011;52962;51.088;3.096;2023-04-30T04:21:21;5.18;;;4.43;;
66163;SDS011;52962;51.088;3.096;2023-04-30T04:23:49;7.65;;;4.97;;
66163;SDS011;52962;51.088;3.096;2023-04-30T04:26:17;5.75;;;4.68;;
66163;SDS011;52962;51.088;3.096;2023-04-30T04:28:47;7.22;;;4.95;;
66163;SDS011;52962;51.088;3.096;2023-04-30T04:31:14;6.82;;;4.32;;
66163;SDS011;52962;51.088;3.096;2023-04-30T04:33:42;6.18;;;4.60;;
66163;SDS011;52962;51.088;3.096;2023-04-30T04:36:12;6.00;;;5.30;;
66163;SDS011;52962;51.088;3.096;2023-04-30T04:38:40;8.32;;;6.32;;
66163;SDS011;52962;51.088;3.096;2023-04-30T04:41:09;6.57;;;5.15;;
66163;SDS011;52962;51.088;3.096;2023-04-30T04:43:37;6.57;;;5.45;;
66163;SDS011;52962;51.088;3.096;2023-04-30T04:46:05;9.13;;;5.93;;
66163;SDS011;52962;51.088;3.096;2023-04-30T04:48:36;8.70;;;5.53;;
66163;SDS011;52962;51.088;3.096;2023-04-30T04:51:04;10.40;;;5.45;;
66163;SDS011;52962;51.088;3.096;2023-04-30T04:53:33;6.80;;;5.78;;
66163;SDS011;52962;51.088;3.096;2023-04-30T04:56:02;9.85;;;6.10;;
66163;SDS011;52962;51.088;3.096;2023-04-30T04:58:30;9.48;;;6.22;;
66163;SDS011;52962;51.088;3.096;2023-04-30T05:00:58;9.73;;;6.75;;
66163;SDS011;52962;51.088;3.096;2023-04-30T05:03:27;7.95;;;6.10;;
66163;SDS011;52962;51.088;3.096;2023-04-30T05:05:56;8.48;;;6.53;;
66163;SDS011;52962;51.088;3.096;2023-04-30T05:10:54;8.98;;;5.18;;
66163;SDS011;52962;51.088;3.096;2023-04-30T05:13:22;7.70;;;6.55;;
66163;SDS011;52962;51.088;3.096;2023-04-30T05:15:50;9.35;;;6.72;;
66163;SDS011;52962;51.088;3.096;2023-04-30T05:18:18;7.78;;;6.32;;
66163;SDS011;52962;51.088;3.096;2023-04-30T05:20:46;8.35;;;6.38;;
66163;SDS011;52962;51.088;3.096;2023-04-30T05:23:14;9.40;;;6.45;;
66163;SDS011;52962;51.088;3.096;2023-04-30T05:25:42;11.13;;;6.97;;
66163;SDS011;52962;51.088;3.096;2023-04-30T05:28:12;8.48;;;7.25;;
66163;SDS011;52962;51.088;3.096;2023-04-30T05:30:40;9.57;;;6.47;;
66163;SDS011;52962;51.088;3.096;2023-04-30T05:33:08;7.57;;;6.72;;
66163;SDS011;52962;51.088;3.096;2023-04-30T05:35:36;10.95;;;7.45;;
66163;SDS011;52962;51.088;3.096;2023-04-30T05:38:04;11.43;;;6.75;;
66163;SDS011;52962;51.088;3.096;2023-04-30T05:40:31;8.77;;;7.63;;
66163;SDS011;52962;51.088;3.096;2023-04-30T05:42:59;9.90;;;7.47;;
66163;SDS011;52962;51.088;3.096;2023-04-30T05:45:28;12.98;;;8.25;;
66163;SDS011;52962;51.088;3.096;2023-04-30T05:47:56;13.60;;;7.43;;
66163;SDS011;52962;51.088;3.096;2023-04-30T05:50:25;9.18;;;6.53;;
66163;SDS011;52962;51.088;3.096;2023-04-30T05:52:52;12.23;;;7.70;;
66163;SDS011;52962;51.088;3.096;2023-04-30T05:55:20;12.35;;;7.28;;
66163;SDS011;52962;51.088;3.096;2023-04-30T05:57:48;11.57;;;7.65;;
66163;SDS011;52962;51.088;3.096;2023-04-30T06:00:16;8.85;;;7.45;;
66163;SDS011;52962;51.088;3.096;2023-04-30T06:02:45;9.07;;;6.90;;
66163;SDS011;52962;51.088;3.096;2023-04-30T06:05:13;9.73;;;7.60;;
66163;SDS011;52962;51.088;3.096;2023-04-30T06:07:42;9.40;;;8.43;;
66163;SDS011;52962;51.088;3.096;2023-04-30T06:10:09;8.57;;;5.85;;
66163;SDS011;52962;51.088;3.096;2023-04-30T06:12:38;10.48;;;7.90;;
66163;SDS011;52962;51.088;3.096;2023-04-30T06:15:06;9.50;;;6.68;;
66163;SDS011;52962;51.088;3.096;2023-04-30T06:17:34;11.38;;;7.72;;
66163;SDS011;52962;51.088;3.096;2023-04-30T06:20:04;11.77;;;7.40;;
66163;SDS011;52962;51.088;3.096;2023-04-30T06:22:32;11.80;;;6.63;;
66163;SDS011;52962;51.088;3.096;2023-04-30T06:25:00;8.35;;;6.90;;
66163;SDS011;52962;51.088;3.096;2023-04-30T06:27:29;10.15;;;6.88;;
66163;SDS011;52962;51.088;3.096;2023-04-30T06:29:57;6.05;;;4.68;;
66163;SDS011;52962;51.088;3.096;2023-04-30T06:32:26;9.20;;;6.50;;
66163;SDS011;52962;51.088;3.096;2023-04-30T06:34:54;9.38;;;6.53;;
66163;SDS011;52962;51.088;3.096;2023-04-30T06:37:24;8.30;;;6.30;;
66163;SDS011;52962;51.088;3.096;2023-04-30T06:39:52;6.45;;;5.05;;
66163;SDS011;52962;51.088;3.096;2023-04-30T06:42:20;11.80;;;5.80;;
66163;SDS011;52962;51.088;3.096;2023-04-30T06:44:48;11.10;;;6.25;;
66163;SDS011;52962;51.088;3.096;2023-04-30T06:47:16;9.15;;;7.03;;
66163;SDS011;52962;51.088;3.096;2023-04-30T06:49:44;7.47;;;6.35;;
66163;SDS011;52962;51.088;3.096;2023-04-30T06:52:12;6.57;;;5.95;;
66163;SDS011;52962;51.088;3.096;2023-04-30T06:54:41;8.07;;;6.00;;
66163;SDS011;52962;51.088;3.096;2023-04-30T06:57:09;10.18;;;6.93;;
66163;SDS011;52962;51.088;3.096;2023-04-30T06:59:37;11.63;;;6.25;;
66163;SDS011;52962;51.088;3.096;2023-04-30T07:04:33;5.35;;;4.68;;
66163;SDS011;52962;51.088;3.096;2023-04-30T07:07:01;8.65;;;7.07;;
66163;SDS011;52962;51.088;3.096;2023-04-30T07:11:59;8.20;;;5.82;;
66163;SDS011;52962;51.088;3.096;2023-04-30T07:14:27;7.82;;;6.35;;
66163;SDS011;52962;51.088;3.096;2023-04-30T07:16:55;11.63;;;6.55;;
66163;SDS011;52962;51.088;3.096;2023-04-30T07:19:23;6.60;;;5.85;;
66163;SDS011;52962;51.088;3.096;2023-04-30T07:21:52;7.85;;;5.63;;
66163;SDS011;52962;51.088;3.096;2023-04-30T07:24:20;10.38;;;7.70;;
66163;SDS011;52962;51.088;3.096;2023-04-30T07:26:48;6.63;;;5.90;;
66163;SDS011;52962;51.088;3.096;2023-04-30T07:29:17;7.35;;;6.40;;
66163;SDS011;52962;51.088;3.096;2023-04-30T07:31:47;8.10;;;7.05;;
66163;SDS011;52962;51.088;3.096;2023-04-30T07:34:15;8.30;;;7.50;;
66163;SDS011;52962;51.088;3.096;2023-04-30T07:36:43;8.55;;;6.95;;
66163;SDS011;52962;51.088;3.096;2023-04-30T07:39:11;7.97;;;6.47;;
66163;SDS011;52962;51.088;3.096;2023-04-30T07:44:06;6.75;;;6.15;;
66163;SDS011;52962;51.088;3.096;2023-04-30T07:46:36;7.22;;;6.57;;
66163;SDS011;52962;51.088;3.096;2023-04-30T07:49:04;7.68;;;6.05;;
66163;SDS011;52962;51.088;3.096;2023-04-30T07:51:32;7.18;;;6.55;;
66163;SDS011;52962;51.088;3.096;2023-04-30T07:54:01;7.07;;;6.38;;
66163;SDS011;52962;51.088;3.096;2023-04-30T07:56:29;6.97;;;6.28;;
66163;SDS011;52962;51.088;3.096;2023-04-30T07:58:57;7.15;;;6.32;;
66163;SDS011;52962;51.088;3.096;2023-04-30T08:01:25;7.82;;;6.88;;
66163;SDS011;52962;51.088;3.096;2023-04-30T08:03:54;7.88;;;6.85;;
66163;SDS011;52962;51.088;3.096;2023-04-30T08:06:22;10.57;;;8.20;;
66163;SDS011;52962;51.088;3.096;2023-04-30T08:08:50;8.45;;;7.65;;
66163;SDS011;52962;51.088;3.096;2023-04-30T08:11:18;7.35;;;6.43;;
66163;SDS011;52962;51.088;3.096;2023-04-30T08:13:46;8.57;;;7.75;;
66163;SDS011;52962;51.088;3.096;2023-04-30T08:16:14;8.70;;;7.63;;
66163;SDS011;52962;51.088;3.096;2023-04-30T08:18:42;7.65;;;6.97;;
66163;SDS011;52962;51.088;3.096;2023-04-30T08:21:13;7.45;;;6.75;;
66163;SDS011;52962;51.088;3.096;2023-04-30T08:23:41;9.75;;;6.78;;
66163;SDS011;52962;51.088;3.096;2023-04-30T08:26:09;9.70;;;8.02;;
66163;SDS011;52962;51.088;3.096;2023-04-30T08:28:37;8.70;;;7.55;;
66163;SDS011;52962;51.088;3.096;2023-04-30T08:31:05;7.95;;;7.32;;
66163;SDS011;52962;51.088;3.096;2023-04-30T08:33:33;8.52;;;7.75;;
66163;SDS011;52962;51.088;3.096;2023-04-30T08:36:02;7.75;;;7.05;;
66163;SDS011;52962;51.088;3.096;2023-04-30T08:38:31;9.18;;;8.25;;
66163;SDS011;52962;51.088;3.096;2023-04-30T08:41:03;8.95;;;8.15;;
66163;SDS011;52962;51.088;3.096;2023-04-30T08:43:32;8.32;;;7.53;;
66163;SDS011;52962;51.088;3.096;2023-04-30T08:46:01;7.82;;;6.85;;
66163;SDS011;52962;51.088;3.096;2023-04-30T08:48:29;9.32;;;7.15;;
66163;SDS011;52962;51.088;3.096;2023-04-30T08:50:58;8.77;;;7.88;;
66163;SDS011;52962;51.088;3.096;2023-04-30T08:53:26;9.63;;;7.97;;
66163;SDS011;52962;51.088;3.096;2023-04-30T08:55:55;8.20;;;7.40;;
66163;SDS011;52962;51.088;3.096;2023-04-30T08:58:24;8.38;;;7.43;;
66163;SDS011;52962;51.088;3.096;2023-04-30T09:00:51;7.97;;;7.20;;
66163;SDS011;52962;51.088;3.096;2023-04-30T09:03:19;8.20;;;7.43;;
66163;SDS011;52962;51.088;3.096;2023-04-30T09:05:49;7.55;;;6.85;;
66163;SDS011;52962;51.088;3.096;2023-04-30T09:08:39;8.27;;;7.57;;
66163;SDS011;52962;51.088;3.096;2023-04-30T09:11:10;7.93;;;7.13;;
66163;SDS011;52962;51.088;3.096;2023-04-30T09:13:48;7.43;;;6.53;;
66163;SDS011;52962;51.088;3.096;2023-04-30T09:16:16;7.65;;;6.85;;
66163;SDS011;52962;51.088;3.096;2023-04-30T09:18:44;8.10;;;7.10;;
66163;SDS011;52962;51.088;3.096;2023-04-30T09:21:13;8.32;;;6.90;;
66163;SDS011;52962;51.088;3.096;2023-04-30T09:23:53;6.30;;;5.68;;
66163;SDS011;52962;51.088;3.096;2023-04-30T09:26:26;6.57;;;5.97;;
66163;SDS011;52962;51.088;3.096;2023-04-30T09:28:54;8.27;;;7.47;;
66163;SDS011;52962;51.088;3.096;2023-04-30T09:31:23;6.82;;;6.15;;
66163;SDS011;52962;51.088;3.096;2023-04-30T09:33:52;7.15;;;6.20;;
66163;SDS011;52962;51.088;3.096;2023-04-30T09:36:20;6.35;;;5.60;;
66163;SDS011;52962;51.088;3.096;2023-04-30T09:43:51;6.13;;;5.53;;
66163;SDS011;52962;51.088;3.096;2023-04-30T09:46:19;5.35;;;4.82;;
66163;SDS011;52962;51.088;3.096;2023-04-30T09:48:55;6.22;;;4.55;;
66163;SDS011;52962;51.088;3.096;2023-04-30T09:51:23;5.95;;;5.35;;
66163;SDS011;52962;51.088;3.096;2023-04-30T09:53:52;5.57;;;5.07;;
66163;SDS011;52962;51.088;3.096;2023-04-30T09:58:49;4.50;;;4.20;;
66163;SDS011;52962;51.088;3.096;2023-04-30T10:01:19;5.50;;;5.00;;
66163;SDS011;52962;51.088;3.096;2023-04-30T10:03:47;6.55;;;4.60;;
66163;SDS011;52962;51.088;3.096;2023-04-30T10:06:15;7.00;;;4.38;;
66163;SDS011;52962;51.088;3.096;2023-04-30T10:08:45;5.07;;;4.68;;
66163;SDS011;52962;51.088;3.096;2023-04-30T10:11:17;6.05;;;5.45;;
66163;SDS011;52962;51.088;3.096;2023-04-30T10:13:46;3.97;;;3.63;;
66163;SDS011;52962;51.088;3.096;2023-04-30T10:16:21;5.30;;;4.90;;
66163;SDS011;52962;51.088;3.096;2023-04-30T10:18:51;4.60;;;4.20;;
66163;SDS011;52962;51.088;3.096;2023-04-30T10:21:21;4.13;;;3.83;;
66163;SDS011;52962;51.088;3.096;2023-04-30T10:23:49;4.82;;;4.20;;
66163;SDS011;52962;51.088;3.096;2023-04-30T10:26:17;4.47;;;4.07;;
66163;SDS011;52962;51.088;3.096;2023-04-30T10:28:46;5.72;;;4.85;;
66163;SDS011;52962;51.088;3.096;2023-04-30T10:31:15;3.78;;;3.35;;
66163;SDS011;52962;51.088;3.096;2023-04-30T10:33:47;5.45;;;3.65;;
66163;SDS011;52962;51.088;3.096;2023-04-30T10:36:21;3.60;;;3.28;;
66163;SDS011;52962;51.088;3.096;2023-04-30T10:38:51;4.28;;;3.55;;
66163;SDS011;52962;51.088;3.096;2023-04-30T10:41:19;2.95;;;2.70;;
66163;SDS011;52962;51.088;3.096;2023-04-30T10:43:47;3.70;;;3.33;;
66163;SDS011;52962;51.088;3.096;2023-04-30T10:46:21;5.07;;;3.45;;
66163;SDS011;52962;51.088;3.096;2023-04-30T10:48:52;3.40;;;3.10;;
66163;SDS011;52962;51.088;3.096;2023-04-30T10:51:21;5.18;;;3.75;;
66163;SDS011;52962;51.088;3.096;2023-04-30T10:53:49;5.32;;;3.75;;
66163;SDS011;52962;51.088;3.096;2023-04-30T10:56:30;3.55;;;3.25;;
66163;SDS011;52962;51.088;3.096;2023-04-30T10:58:58;3.58;;;3.28;;
66163;SDS011;52962;51.088;3.096;2023-04-30T11:01:27;4.18;;;3.78;;
66163;SDS011;52962;51.088;3.096;2023-04-30T11:04:04;5.72;;;5.07;;
66163;SDS011;52962;51.088;3.096;2023-04-30T11:06:47;4.70;;;4.30;;
66163;SDS011;52962;51.088;3.096;2023-04-30T11:09:16;5.60;;;3.92;;
66163;SDS011;52962;51.088;3.096;2023-04-30T11:14:11;4.47;;;4.07;;
66163;SDS011;52962;51.088;3.096;2023-04-30T11:16:39;4.40;;;4.00;;
66163;SDS011;52962;51.088;3.096;2023-04-30T11:19:09;4.00;;;3.42;;
66163;SDS011;52962;51.088;3.096;2023-04-30T11:21:41;5.00;;;4.50;;
66163;SDS011;52962;51.088;3.096;2023-04-30T11:24:09;4.72;;;3.55;;
66163;SDS011;52962;51.088;3.096;2023-04-30T11:29:26;4.10;;;3.70;;
66163;SDS011;52962;51.088;3.096;2023-04-30T11:31:54;4.15;;;3.42;;
66163;SDS011;52962;51.088;3.096;2023-04-30T11:34:24;3.53;;;3.13;;
66163;SDS011;52962;51.088;3.096;2023-04-30T11:36:54;3.22;;;2.92;;
66163;SDS011;52962;51.088;3.096;2023-04-30T11:39:25;4.32;;;3.63;;
66163;SDS011;52962;51.088;3.096;2023-04-30T11:41:54;5.20;;;4.07;;
66163;SDS011;52962;51.088;3.096;2023-04-30T11:44:24;3.55;;;3.25;;
66163;SDS011;52962;51.088;3.096;2023-04-30T11:46:53;3.53;;;3.22;;
66163;SDS011;52962;51.088;3.096;2023-04-30T11:49:21;3.42;;;3.13;;
66163;SDS011;52962;51.088;3.096;2023-04-30T11:54:17;3.60;;;3.20;;
66163;SDS011;52962;51.088;3.096;2023-04-30T11:56:46;4.32;;;3.53;;
66163;SDS011;52962;51.088;3.096;2023-04-30T11:59:15;5.38;;;3.47;;
66163;SDS011;52962;51.088;3.096;2023-04-30T12:01:43;3.22;;;2.92;;
66163;SDS011;52962;51.088;3.096;2023-04-30T12:04:11;3.00;;;2.72;;
66163;SDS011;52962;51.088;3.096;2023-04-30T12:06:39;3.67;;;3.38;;
66163;SDS011;52962;51.088;3.096;2023-04-30T12:09:07;5.07;;;3.90;;
66163;SDS011;52962;51.088;3.096;2023-04-30T12:11:38;3.63;;;3.35;;
66163;SDS011;52962;51.088;3.096;2023-04-30T12:14:07;3.50;;;3.17;;
66163;SDS011;52962;51.088;3.096;2023-04-30T12:16:40;3.55;;;3.22;;
66163;SDS011;52962;51.088;3.096;2023-04-30T12:19:08;3.85;;;3.42;;
66163;SDS011;52962;51.088;3.096;2023-04-30T12:21:36;3.85;;;3.20;;
66163;SDS011;52962;51.088;3.096;2023-04-30T12:24:04;3.53;;;3.22;;
66163;SDS011;52962;51.088;3.096;2023-04-30T12:26:33;5.72;;;3.22;;
66163;SDS011;52962;51.088;3.096;2023-04-30T12:29:04;3.10;;;2.80;;
66163;SDS011;52962;51.088;3.096;2023-04-30T12:31:32;3.78;;;3.22;;
66163;SDS011;52962;51.088;3.096;2023-04-30T12:34:04;3.63;;;3.33;;
66163;SDS011;52962;51.088;3.096;2023-04-30T12:36:32;3.00;;;2.65;;
66163;SDS011;52962;51.088;3.096;2023-04-30T12:39:04;3.60;;;3.30;;
66163;SDS011;52962;51.088;3.096;2023-04-30T12:41:38;3.15;;;2.83;;
66163;SDS011;52962;51.088;3.096;2023-04-30T12:44:19;3.42;;;2.90;;
66163;SDS011;52962;51.088;3.096;2023-04-30T12:46:47;4.05;;;2.78;;
66163;SDS011;52962;51.088;3.096;2023-04-30T12:49:22;3.13;;;2.90;;
66163;SDS011;52962;51.088;3.096;2023-04-30T12:51:54;3.42;;;2.83;;
66163;SDS011;52962;51.088;3.096;2023-04-30T12:54:23;3.83;;;3.20;;
66163;SDS011;52962;51.088;3.096;2023-04-30T12:56:56;3.42;;;3.03;;
66163;SDS011;52962;51.088;3.096;2023-04-30T12:59:25;3.42;;;3.05;;
66163;SDS011;52962;51.088;3.096;2023-04-30T13:01:53;3.25;;;2.97;;
66163;SDS011;52962;51.088;3.096;2023-04-30T13:04:22;2.92;;;2.42;;
66163;SDS011;52962;51.088;3.096;2023-04-30T13:09:17;3.30;;;2.95;;
66163;SDS011;52962;51.088;3.096;2023-04-30T13:11:45;2.65;;;2.45;;
66163;SDS011;52962;51.088;3.096;2023-04-30T13:14:13;3.00;;;2.70;;
66163;SDS011;52962;51.088;3.096;2023-04-30T13:16:44;4.35;;;2.63;;
66163;SDS011;52962;51.088;3.096;2023-04-30T13:19:13;3.13;;;2.45;;
66163;SDS011;52962;51.088;3.096;2023-04-30T13:21:41;2.70;;;2.50;;
66163;SDS011;52962;51.088;3.096;2023-04-30T13:26:36;2.85;;;2.15;;
66163;SDS011;52962;51.088;3.096;2023-04-30T13:29:04;2.10;;;1.90;;
66163;SDS011;52962;51.088;3.096;2023-04-30T13:31:32;2.38;;;2.17;;
66163;SDS011;52962;51.088;3.096;2023-04-30T13:34:02;2.22;;;2.03;;
66163;SDS011;52962;51.088;3.096;2023-04-30T13:36:29;3.15;;;2.60;;
66163;SDS011;52962;51.088;3.096;2023-04-30T13:38:58;2.35;;;2.15;;
66163;SDS011;52962;51.088;3.096;2023-04-30T13:41:26;2.30;;;2.10;;
66163;SDS011;52962;51.088;3.096;2023-04-30T13:43:54;2.40;;;2.20;;
66163;SDS011;52962;51.088;3.096;2023-04-30T13:46:22;2.60;;;2.40;;
66163;SDS011;52962;51.088;3.096;2023-04-30T13:48:50;2.38;;;2.17;;
66163;SDS011;52962;51.088;3.096;2023-04-30T13:51:20;4.63;;;2.85;;
66163;SDS011;52962;51.088;3.096;2023-04-30T13:53:48;3.33;;;2.08;;
66163;SDS011;52962;51.088;3.096;2023-04-30T13:58:44;2.28;;;1.83;;
66163;SDS011;52962;51.088;3.096;2023-04-30T14:01:12;2.42;;;1.83;;
66163;SDS011;52962;51.088;3.096;2023-04-30T14:03:40;2.38;;;1.88;;
66163;SDS011;52962;51.088;3.096;2023-04-30T14:06:08;1.88;;;1.77;;
66163;SDS011;52962;51.088;3.096;2023-04-30T14:08:37;2.13;;;2.00;;
66163;SDS011;52962;51.088;3.096;2023-04-30T14:11:05;3.00;;;1.95;;
66163;SDS011;52962;51.088;3.096;2023-04-30T14:13:33;2.15;;;2.05;;
66163;SDS011;52962;51.088;3.096;2023-04-30T14:16:01;2.05;;;1.92;;
66163;SDS011;52962;51.088;3.096;2023-04-30T14:18:29;2.45;;;1.75;;
66163;SDS011;52962;51.088;3.096;2023-04-30T14:23:24;3.08;;;2.28;;
66163;SDS011;52962;51.088;3.096;2023-04-30T14:25:55;4.90;;;2.60;;
66163;SDS011;52962;51.088;3.096;2023-04-30T14:28:23;2.08;;;1.98;;
66163;SDS011;52962;51.088;3.096;2023-04-30T14:30:51;2.65;;;2.17;;
66163;SDS011;52962;51.088;3.096;2023-04-30T14:35:47;3.85;;;3.55;;
66163;SDS011;52962;51.088;3.096;2023-04-30T14:38:14;3.92;;;3.63;;
66163;SDS011;52962;51.088;3.096;2023-04-30T14:40:42;3.90;;;3.60;;
66163;SDS011;52962;51.088;3.096;2023-04-30T14:43:12;4.85;;;4.22;;
66163;SDS011;52962;51.088;3.096;2023-04-30T14:45:39;4.40;;;4.10;;
66163;SDS011;52962;51.088;3.096;2023-04-30T14:48:07;4.90;;;4.38;;
66163;SDS011;52962;51.088;3.096;2023-04-30T14:50:35;5.32;;;4.82;;
66163;SDS011;52962;51.088;3.096;2023-04-30T14:55:31;4.80;;;4.40;;
66163;SDS011;52962;51.088;3.096;2023-04-30T14:57:59;5.18;;;4.68;;
66163;SDS011;52962;51.088;3.096;2023-04-30T15:00:29;5.70;;;5.20;;
66163;SDS011;52962;51.088;3.096;2023-04-30T15:02:57;5.10;;;4.55;;
66163;SDS011;52962;51.088;3.096;2023-04-30T15:05:25;4.63;;;4.22;;
66163;SDS011;52962;51.088;3.096;2023-04-30T15:07:53;4.60;;;4.20;;
66163;SDS011;52962;51.088;3.096;2023-04-30T15:12:49;5.95;;;5.45;;
66163;SDS011;52962;51.088;3.096;2023-04-30T15:17:46;6.68;;;5.40;;
66163;SDS011;52962;51.088;3.096;2023-04-30T15:20:14;5.85;;;5.35;;
66163;SDS011;52962;51.088;3.096;2023-04-30T15:22:42;5.15;;;4.65;;
66163;SDS011;52962;51.088;3.096;2023-04-30T15:25:10;5.45;;;4.95;;
66163;SDS011;52962;51.088;3.096;2023-04-30T15:27:39;5.25;;;4.85;;
66163;SDS011;52962;51.088;3.096;2023-04-30T15:30:08;5.85;;;5.35;;
66163;SDS011;52962;51.088;3.096;2023-04-30T15:32:36;5.50;;;5.00;;
66163;SDS011;52962;51.088;3.096;2023-04-30T15:37:33;7.05;;;5.03;;
66163;SDS011;52962;51.088;3.096;2023-04-30T15:40:01;4.75;;;4.30;;
66163;SDS011;52962;51.088;3.096;2023-04-30T15:42:30;4.80;;;4.20;;
66163;SDS011;52962;51.088;3.096;2023-04-30T15:44:58;5.28;;;4.78;;
66163;SDS011;52962;51.088;3.096;2023-04-30T15:47:26;4.78;;;4.35;;
66163;SDS011;52962;51.088;3.096;2023-04-30T15:49:54;4.25;;;3.95;;
66163;SDS011;52962;51.088;3.096;2023-04-30T15:52:22;3.85;;;3.55;;
66163;SDS011;52962;51.088;3.096;2023-04-30T15:54:52;6.15;;;4.15;;
66163;SDS011;52962;51.088;3.096;2023-04-30T15:57:20;5.75;;;3.60;;
66163;SDS011;52962;51.088;3.096;2023-04-30T15:59:48;3.80;;;3.50;;
66163;SDS011;52962;51.088;3.096;2023-04-30T16:02:16;4.00;;;3.63;;
66163;SDS011;52962;51.088;3.096;2023-04-30T16:07:11;4.00;;;3.63;;